Time;durP1;ratioP1;P1;durP2;ratioP2;P2;SDS_P1;SDS_P2;PMS_P1;PMS_P2;Temp;Humidity;BMP_temperature;BMP_pressure;BME280_temperature;BME280_humidity;BME280_pressure;Samples;Min_cycle;Max_cycle;Signal;HPM_P1;HPM_P2
2022/05/25 00:02:03;;;;;;;1.00;0.70;;;22.10;61.70;;;;;;5095959;28;20177;-71
2022/05/25 00:04:29;;;;;;;1.40;0.80;;;22.10;61.70;;;;;;5095746;28;20192;-71
2022/05/25 00:06:55;;;;;;;0.80;0.80;;;22.10;61.60;;;;;;5096175;28;20213;-71
2022/05/25 00:09:21;;;;;;;0.80;0.68;;;22.10;61.70;;;;;;5096820;28;20185;-71
2022/05/25 00:11:47;;;;;;;0.90;0.70;;;22.10;61.70;;;;;;5096783;28;20253;-71
2022/05/25 00:14:13;;;;;;;1.77;0.70;;;22.10;61.70;;;;;;5080961;28;20209;-71
2022/05/25 00:16:39;;;;;;;0.95;0.70;;;22.10;61.70;;;;;;5085648;28;20188;-72
2022/05/25 00:21:51;;;;;;;1.17;0.75;;;22.10;61.70;;;;;;5096171;28;20188;-71
2022/05/25 00:24:16;;;;;;;1.15;0.77;;;22.10;61.60;;;;;;5081620;28;20222;-71
2022/05/25 00:26:43;;;;;;;1.05;0.70;;;22.10;61.60;;;;;;5080178;28;20205;-71
2022/05/25 00:29:08;;;;;;;1.23;0.70;;;22.10;61.70;;;;;;5097338;28;20181;-71
2022/05/25 00:31:35;;;;;;;1.00;0.75;;;22.10;61.70;;;;;;5097261;28;20192;-71
2022/05/25 00:34:00;;;;;;;0.95;0.95;;;22.10;61.60;;;;;;5079804;28;20521;-71
2022/05/25 00:36:27;;;;;;;0.88;0.70;;;22.10;61.70;;;;;;5096798;28;20257;-71
2022/05/25 00:38:53;;;;;;;2.03;0.80;;;22.10;61.70;;;;;;5063211;28;20161;-71
2022/05/25 00:41:28;;;;;;;0.77;0.77;;;22.10;61.70;;;;;;5079533;28;20205;-71
2022/05/25 00:43:55;;;;;;;1.58;0.70;;;22.10;61.70;;;;;;5080614;28;20287;-71
2022/05/25 00:46:23;;;;;;;0.60;0.60;;;22.10;61.70;;;;;;5080938;28;20208;-72
2022/05/25 00:49:01;;;;;;;0.85;0.60;;;22.10;61.60;;;;;;5097654;28;20192;-71
2022/05/25 00:51:56;;;;;;;2.20;0.60;;;22.10;61.70;;;;;;5081195;28;20309;-71
2022/05/25 00:54:31;;;;;;;0.85;0.70;;;22.10;61.60;;;;;;5099977;28;20185;-71
2022/05/25 00:57:05;;;;;;;1.38;0.68;;;22.10;61.70;;;;;;5080950;28;20257;-71
2022/05/25 00:59:41;;;;;;;0.80;0.80;;;22.10;61.60;;;;;;5097972;28;20203;-71
2022/05/25 01:02:06;;;;;;;0.70;0.70;;;22.10;61.70;;;;;;5081411;28;20172;-71
2022/05/25 01:04:32;;;;;;;0.85;0.60;;;22.10;61.70;;;;;;5099452;28;20245;-71
2022/05/25 01:07:35;;;;;;;0.57;0.57;;;22.10;61.70;;;;;;5098623;28;20201;-71
2022/05/25 01:10:24;;;;;;;0.70;0.68;;;22.10;61.70;;;;;;5098844;28;20250;-71
2022/05/25 01:13:18;;;;;;;0.85;0.80;;;22.10;61.60;;;;;;5098838;28;20177;-71
2022/05/25 01:16:30;;;;;;;0.65;0.65;;;22.10;61.70;;;;;;5082092;28;20295;-71
2022/05/25 01:19:16;;;;;;;0.82;0.65;;;22.10;61.70;;;;;;5083664;28;20177;-72
2022/05/25 01:21:55;;;;;;;0.60;0.60;;;22.10;61.70;;;;;;5100264;28;20193;-71
2022/05/25 01:24:39;;;;;;;1.05;0.80;;;22.00;61.60;;;;;;5099766;28;20172;-72
2022/05/25 01:27:29;;;;;;;1.27;0.80;;;22.10;61.80;;;;;;5099795;28;20205;-71
2022/05/25 01:30:03;;;;;;;0.95;0.77;;;22.00;61.60;;;;;;5100908;28;20169;-71
2022/05/25 01:33:05;;;;;;;0.80;0.60;;;22.00;61.60;;;;;;5083337;28;20200;-71
2022/05/25 01:35:47;;;;;;;1.15;0.50;;;22.10;62.50;;;;;;5080290;28;20201;-71
2022/05/25 01:38:35;;;;;;;0.60;0.52;;;22.10;61.80;;;;;;5096810;28;20630;-71
2022/05/25 01:41:25;;;;;;;0.70;0.70;;;22.10;61.80;;;;;;5095710;28;20205;-71
2022/05/25 01:43:59;;;;;;;0.82;0.60;;;22.00;61.60;;;;;;5080333;28;20249;-71
2022/05/25 01:46:34;;;;;;;0.75;0.70;;;22.10;61.80;;;;;;5098774;28;20203;-71
2022/05/25 01:49:14;;;;;;;1.60;0.80;;;22.10;61.80;;;;;;5080664;28;20191;-71
2022/05/25 01:51:49;;;;;;;0.60;0.60;;;22.10;61.90;;;;;;5080390;28;20177;-71
2022/05/25 01:54:23;;;;;;;0.75;0.65;;;22.10;61.90;;;;;;5097424;28;20172;-71
2022/05/25 01:56:55;;;;;;;1.23;0.90;;;22.10;61.80;;;;;;5082482;28;20215;-72
2022/05/25 01:59:22;;;;;;;0.80;0.80;;;22.00;61.70;;;;;;5078113;28;20197;-71
2022/05/25 02:04:19;;;;;;;0.85;0.85;;;22.00;61.70;;;;;;5077216;28;20173;-71
2022/05/25 02:04:44;;;;;;;3.22;0.93;;;22.10;61.80;;;;;;5094239;28;20182;-71
2022/05/25 02:07:18;;;;;;;0.70;0.70;;;22.10;61.80;;;;;;5059724;28;20209;-71
2022/05/25 02:09:55;;;;;;;0.52;0.50;;;22.10;61.80;;;;;;5076624;28;20192;-71
2022/05/25 02:12:40;;;;;;;0.60;0.60;;;22.10;61.80;;;;;;5076235;28;20189;-71
2022/05/25 02:15:14;;;;;;;0.60;0.60;;;22.00;61.70;;;;;;5076326;28;20277;-71
2022/05/25 02:17:55;;;;;;;1.33;0.60;;;22.00;61.70;;;;;;5076708;28;20675;-71
2022/05/25 02:20:43;;;;;;;0.70;0.60;;;22.00;61.70;;;;;;5076689;28;20209;-71
2022/05/25 02:23:51;;;;;;;1.33;0.65;;;22.00;61.70;;;;;;5076097;28;20193;-71
2022/05/25 02:26:31;;;;;;;0.68;0.60;;;22.00;61.70;;;;;;5059844;28;20271;-71
2022/05/25 02:29:43;;;;;;;0.50;0.50;;;22.00;61.70;;;;;;5077833;28;20212;-71
2022/05/25 02:32:19;;;;;;;0.65;0.55;;;22.00;61.70;;;;;;5019274;28;20225;-71
2022/05/25 02:34:52;;;;;;;1.85;0.60;;;22.00;61.70;;;;;;5018713;28;20219;-71
2022/05/25 02:37:23;;;;;;;0.77;0.77;;;22.00;61.70;;;;;;5072577;28;20722;-71
2022/05/25 02:39:54;;;;;;;0.80;0.77;;;22.00;61.70;;;;;;5075499;28;20206;-71
2022/05/25 02:42:20;;;;;;;0.80;0.70;;;22.00;61.70;;;;;;5077770;28;20197;-71
2022/05/25 02:44:46;;;;;;;0.80;0.60;;;22.00;61.70;;;;;;5062567;28;20272;-71
2022/05/25 02:47:13;;;;;;;0.60;0.60;;;22.00;61.80;;;;;;5077346;28;20209;-71
2022/05/25 02:49:39;;;;;;;0.52;0.50;;;22.00;61.70;;;;;;5077911;28;20281;-71
2022/05/25 02:52:08;;;;;;;0.80;0.80;;;22.00;61.80;;;;;;5078455;28;20200;-71
2022/05/25 02:54:35;;;;;;;0.70;0.50;;;22.00;61.80;;;;;;5077278;28;20173;-71
2022/05/25 02:57:00;;;;;;;0.70;0.70;;;22.00;61.80;;;;;;5080519;28;20204;-71
2022/05/25 02:59:26;;;;;;;0.50;0.50;;;22.00;61.80;;;;;;5094367;28;20188;-71
2022/05/25 03:01:52;;;;;;;0.50;0.50;;;22.00;61.80;;;;;;5094144;28;20188;-70
2022/05/25 03:04:18;;;;;;;0.60;0.60;;;22.00;61.80;;;;;;5095385;28;20188;-71
2022/05/25 03:06:44;;;;;;;2.08;0.93;;;22.00;61.80;;;;;;5094779;28;20204;-71
2022/05/25 03:09:10;;;;;;;1.83;0.65;;;22.00;61.80;;;;;;5095509;28;20181;-71
2022/05/25 03:11:36;;;;;;;0.77;0.60;;;22.00;61.80;;;;;;5096673;28;20187;-71
2022/05/25 03:14:01;;;;;;;1.30;0.60;;;22.00;61.80;;;;;;5063221;28;20181;-71
2022/05/25 03:16:27;;;;;;;0.57;0.52;;;22.00;61.80;;;;;;5097443;28;20301;-71
2022/05/25 03:18:53;;;;;;;0.60;0.60;;;22.00;61.80;;;;;;5098656;28;20245;-71
2022/05/25 03:21:20;;;;;;;0.60;0.60;;;21.90;61.70;;;;;;5099040;28;20213;-71
2022/05/25 03:23:46;;;;;;;0.75;0.75;;;22.00;61.80;;;;;;5099548;28;20197;-71
2022/05/25 03:26:12;;;;;;;0.82;0.60;;;22.00;61.80;;;;;;5084576;28;20212;-71
2022/05/25 03:28:39;;;;;;;0.60;0.60;;;22.00;61.80;;;;;;5084356;28;20184;-71
2022/05/25 03:31:05;;;;;;;0.95;0.90;;;22.00;61.80;;;;;;5084181;28;20188;-71
2022/05/25 03:33:34;;;;;;;0.80;0.80;;;21.90;61.70;;;;;;5083075;28;20208;-72
2022/05/25 03:36:00;;;;;;;1.00;0.60;;;21.90;61.70;;;;;;5098515;28;20779;-71
2022/05/25 03:38:29;;;;;;;0.55;0.50;;;22.00;61.80;;;;;;5100886;28;20239;-72
2022/05/25 03:40:55;;;;;;;0.82;0.60;;;22.00;61.80;;;;;;5082449;28;20259;-71
2022/05/25 03:43:29;;;;;;;0.63;0.60;;;22.00;61.80;;;;;;5094444;28;20251;-71
2022/05/25 03:45:55;;;;;;;0.60;0.55;;;22.00;61.80;;;;;;5079978;28;20215;-71
2022/05/25 03:48:21;;;;;;;0.70;0.70;;;22.00;61.90;;;;;;5062940;28;20170;-71
2022/05/25 03:50:47;;;;;;;0.65;0.65;;;21.90;61.70;;;;;;5089891;28;20189;-71
2022/05/25 03:53:14;;;;;;;0.63;0.63;;;22.00;61.80;;;;;;5082814;28;20193;-71
2022/05/25 03:55:41;;;;;;;0.60;0.50;;;21.90;61.70;;;;;;5081148;28;20200;-71
2022/05/25 03:58:09;;;;;;;0.93;0.65;;;21.90;61.70;;;;;;5079221;28;20189;-71
2022/05/25 04:00:36;;;;;;;0.60;0.60;;;22.00;61.90;;;;;;5079352;28;20209;-71
2022/05/25 04:03:03;;;;;;;0.73;0.57;;;22.00;61.90;;;;;;5080846;28;20620;-72
2022/05/25 04:05:32;;;;;;;0.60;0.60;;;22.00;61.90;;;;;;5096245;28;20275;-71
2022/05/25 04:08:00;;;;;;;0.52;0.52;;;22.00;61.90;;;;;;5079893;28;20185;-71
2022/05/25 04:10:27;;;;;;;2.95;0.82;;;22.00;61.90;;;;;;5078792;28;20191;-71
2022/05/25 04:12:54;;;;;;;0.50;0.50;;;22.00;61.90;;;;;;5079590;28;20204;-71
2022/05/25 04:15:23;;;;;;;1.52;0.57;;;21.90;62.60;;;;;;5079142;28;20211;-71
2022/05/25 04:17:50;;;;;;;0.55;0.50;;;22.00;61.80;;;;;;5079362;28;20188;-71
2022/05/25 04:20:17;;;;;;;0.50;0.50;;;22.00;61.90;;;;;;5100155;28;20797;-71
2022/05/25 04:22:44;;;;;;;0.75;0.57;;;22.00;61.90;;;;;;5097742;28;20180;-71
2022/05/25 04:25:14;;;;;;;0.68;0.60;;;22.00;61.90;;;;;;5080020;28;20278;-71
2022/05/25 04:27:42;;;;;;;1.50;0.60;;;21.90;61.90;;;;;;5096898;28;20177;-71
2022/05/25 04:30:14;;;;;;;0.60;0.60;;;22.00;61.90;;;;;;5078481;28;20189;-71
2022/05/25 04:32:40;;;;;;;0.90;0.70;;;22.00;61.90;;;;;;5096194;28;20177;-71
2022/05/25 04:35:07;;;;;;;0.47;0.47;;;21.90;61.80;;;;;;5094736;28;20260;-71
2022/05/25 04:40:21;;;;;;;0.52;0.52;;;22.00;61.90;;;;;;5096277;28;20212;-71
2022/05/25 04:42:48;;;;;;;0.70;0.70;;;21.90;61.80;;;;;;5095424;28;20173;-71
2022/05/25 04:45:14;;;;;;;0.70;0.70;;;21.90;61.80;;;;;;5095094;28;20193;-71
2022/05/25 04:47:41;;;;;;;0.50;0.50;;;22.00;62.00;;;;;;5077466;28;20218;-71
2022/05/25 04:50:09;;;;;;;0.90;0.77;;;22.00;61.90;;;;;;5061595;28;20217;-71
2022/05/25 04:52:37;;;;;;;0.68;0.68;;;22.00;62.00;;;;;;5077210;28;20197;-71
2022/05/25 04:55:05;;;;;;;0.80;0.80;;;22.00;62.00;;;;;;5077230;28;20177;-71
2022/05/25 04:57:31;;;;;;;0.75;0.70;;;22.00;61.90;;;;;;5078292;28;20636;-71
2022/05/25 05:00:00;;;;;;;0.95;0.77;;;21.90;61.80;;;;;;5077724;28;20221;-71
2022/05/25 05:02:30;;;;;;;0.75;0.60;;;21.90;61.80;;;;;;5095895;28;20174;-71
2022/05/25 05:04:57;;;;;;;0.85;0.60;;;22.00;61.90;;;;;;5082850;28;20186;-71
2022/05/25 05:07:33;;;;;;;0.50;0.50;;;21.90;61.80;;;;;;5099089;28;20188;-71
2022/05/25 05:10:01;;;;;;;0.57;0.57;;;21.90;61.80;;;;;;5098201;28;20169;-71
2022/05/25 05:12:30;;;;;;;0.60;0.60;;;21.90;61.80;;;;;;5073704;28;20186;-71
2022/05/25 05:15:00;;;;;;;0.68;0.60;;;22.00;61.90;;;;;;5059075;28;20194;-71
2022/05/25 05:17:26;;;;;;;0.65;0.65;;;21.90;61.90;;;;;;5077977;28;20228;-71
2022/05/25 05:20:15;;;;;;;0.60;0.60;;;21.90;61.80;;;;;;5063404;28;20255;-71
2022/05/25 05:22:40;;;;;;;1.13;0.60;;;21.90;61.80;;;;;;5078103;28;20186;-71
2022/05/25 05:25:07;;;;;;;0.80;0.70;;;22.00;61.90;;;;;;5078920;28;20592;-71
2022/05/25 05:27:34;;;;;;;0.60;0.50;;;21.90;61.80;;;;;;5060987;28;20185;-71
2022/05/25 05:30:06;;;;;;;0.52;0.52;;;21.90;61.80;;;;;;5077924;28;20193;-71
2022/05/25 05:32:32;;;;;;;0.60;0.60;;;21.90;61.80;;;;;;5079657;28;20217;-71
2022/05/25 05:34:59;;;;;;;1.02;0.60;;;21.90;61.80;;;;;;5079159;28;20208;-71
2022/05/25 05:37:52;;;;;;;0.50;0.50;;;21.90;61.80;;;;;;5079107;28;20189;-71
2022/05/25 05:40:20;;;;;;;0.60;0.60;;;22.00;61.80;;;;;;5076147;28;20302;-71
2022/05/25 05:42:49;;;;;;;0.85;0.60;;;21.90;61.80;;;;;;5077351;28;20184;-71
2022/05/25 05:45:22;;;;;;;0.60;0.60;;;21.90;61.80;;;;;;5058762;28;20296;-71
2022/05/25 05:48:06;;;;;;;0.50;0.50;;;22.00;61.90;;;;;;5060288;28;20181;-71
2022/05/25 05:50:38;;;;;;;0.50;0.50;;;21.90;61.70;;;;;;5076997;28;20169;-71
2022/05/25 05:53:07;;;;;;;0.73;0.70;;;22.00;61.80;;;;;;5075872;28;20181;-71
2022/05/25 05:55:35;;;;;;;1.33;0.73;;;21.90;61.70;;;;;;5058625;28;20197;-71
2022/05/25 05:58:01;;;;;;;1.15;0.50;;;22.00;61.80;;;;;;5075355;28;20612;-71
2022/05/25 06:00:27;;;;;;;0.65;0.65;;;22.00;61.80;;;;;;5059792;28;20217;-71
2022/05/25 06:02:52;;;;;;;0.60;0.60;;;22.00;61.80;;;;;;5101862;28;20189;-71
2022/05/25 06:05:18;;;;;;;0.63;0.63;;;22.00;61.80;;;;;;5114593;28;20249;-71
2022/05/25 06:07:44;;;;;;;0.57;0.57;;;21.90;61.60;;;;;;5120758;28;20160;-71
2022/05/25 06:10:11;;;;;;;0.50;0.50;;;21.90;61.60;;;;;;5118547;28;20188;-71
2022/05/25 06:12:37;;;;;;;0.70;0.50;;;22.00;61.70;;;;;;5100898;28;20176;-71
2022/05/25 06:20:39;;;;;;;0.57;0.57;;;22.00;61.70;;;;;;5098283;28;20216;-70
2022/05/25 06:23:05;;;;;;;1.10;0.60;;;22.00;61.70;;;;;;5099484;28;20181;-71
2022/05/25 06:25:31;;;;;;;0.60;0.60;;;22.00;61.60;;;;;;5080471;28;20221;-71
2022/05/25 06:27:56;;;;;;;0.70;0.70;;;22.00;61.50;;;;;;5099985;28;20221;-71
2022/05/25 06:30:22;;;;;;;0.50;0.50;;;22.00;61.60;;;;;;5077291;28;20223;-71
2022/05/25 06:32:48;;;;;;;1.58;0.60;;;22.00;61.50;;;;;;5098260;28;20231;-72
2022/05/25 06:35:14;;;;;;;0.80;0.80;;;22.00;61.30;;;;;;5096239;28;20212;-71
2022/05/25 06:37:40;;;;;;;0.50;0.50;;;22.00;61.40;;;;;;5075720;28;20213;-70
2022/05/25 06:40:07;;;;;;;0.70;0.70;;;22.10;61.50;;;;;;5093289;28;20201;-71
2022/05/25 06:42:34;;;;;;;0.68;0.60;;;22.00;61.40;;;;;;5076479;28;20186;-70
2022/05/25 06:44:59;;;;;;;0.60;0.52;;;22.00;61.30;;;;;;5096702;28;20184;-71
2022/05/25 06:47:27;;;;;;;0.50;0.50;;;22.00;61.30;;;;;;5096459;28;20237;-71
2022/05/25 06:49:55;;;;;;;0.50;0.50;;;22.10;61.60;;;;;;5096479;28;20189;-71
2022/05/25 06:52:23;;;;;;;0.50;0.50;;;22.10;61.50;;;;;;5079267;28;20712;-71
2022/05/25 06:54:56;;;;;;;0.63;0.50;;;22.00;61.30;;;;;;5075481;28;20275;-70
2022/05/25 06:57:22;;;;;;;0.60;0.60;;;22.10;61.60;;;;;;5079434;28;20197;-71
2022/05/25 06:59:48;;;;;;;0.52;0.50;;;22.10;61.40;;;;;;5078174;28;20274;-70
2022/05/25 07:02:14;;;;;;;0.50;0.50;;;22.10;61.20;;;;;;5095571;28;20173;-71
2022/05/25 07:04:39;;;;;;;1.45;0.50;;;22.10;61.30;;;;;;5094562;28;20254;-70
2022/05/25 07:07:05;;;;;;;0.50;0.50;;;22.10;61.30;;;;;;5074603;28;20220;-71
2022/05/25 07:09:33;;;;;;;1.15;0.63;;;22.10;61.30;;;;;;5074309;28;20183;-70
2022/05/25 07:11:59;;;;;;;0.50;0.50;;;22.10;61.20;;;;;;5074421;28;20240;-71
2022/05/25 07:14:27;;;;;;;0.50;0.50;;;22.10;61.20;;;;;;5086456;28;20188;-71
2022/05/25 07:16:54;;;;;;;0.40;0.40;;;22.10;61.30;;;;;;5094751;28;20249;-71
2022/05/25 07:19:20;;;;;;;0.50;0.50;;;22.10;61.20;;;;;;5095113;28;20189;-72
2022/05/25 07:21:48;;;;;;;1.17;0.65;;;22.10;61.10;;;;;;5095085;28;20224;-71
2022/05/25 07:24:14;;;;;;;0.50;0.47;;;22.10;61.10;;;;;;5094321;28;20196;-71
2022/05/25 07:26:40;;;;;;;1.52;0.75;;;22.10;60.90;;;;;;5093765;28;20201;-71
2022/05/25 07:29:06;;;;;;;0.50;0.50;;;22.10;61.00;;;;;;5094176;28;20266;-71
2022/05/25 07:31:37;;;;;;;0.75;0.60;;;22.10;60.90;;;;;;5077862;28;20211;-71
2022/05/25 07:34:24;;;;;;;0.90;0.50;;;22.10;60.90;;;;;;5094275;28;20203;-70
2022/05/25 07:36:59;;;;;;;1.83;0.60;;;22.10;61.20;;;;;;5094860;28;20205;-71
2022/05/25 07:39:36;;;;;;;1.00;0.70;;;22.10;60.90;;;;;;5100417;28;20176;-71
2022/05/25 07:42:04;;;;;;;0.73;0.50;;;22.10;60.90;;;;;;5094795;28;20218;-71
2022/05/25 07:44:37;;;;;;;0.60;0.60;;;22.10;60.70;;;;;;5094159;28;20276;-71
2022/05/25 07:47:03;;;;;;;0.63;0.60;;;22.10;60.70;;;;;;5095446;28;20290;-71
2022/05/25 07:49:29;;;;;;;0.60;0.60;;;22.20;60.80;;;;;;5094566;28;20270;-71
2022/05/25 07:51:56;;;;;;;1.05;0.60;;;22.10;60.70;;;;;;5095662;28;20185;-71
2022/05/25 07:54:22;;;;;;;0.50;0.50;;;22.20;60.70;;;;;;5095631;28;20195;-71
2022/05/25 07:56:48;;;;;;;0.70;0.60;;;22.20;60.50;;;;;;5095332;28;20213;-71
2022/05/25 07:59:16;;;;;;;0.80;0.60;;;22.20;60.40;;;;;;5075326;28;20311;-71
2022/05/25 08:07:37;;;;;;;0.70;0.68;;;22.20;60.40;;;;;;5075115;28;20213;-71
2022/05/25 08:10:14;;;;;;;1.02;0.60;;;22.20;60.40;;;;;;5060333;28;20193;-70
2022/05/25 08:12:43;;;;;;;0.68;0.65;;;22.20;60.70;;;;;;5078988;28;20227;-71
2022/05/25 08:15:12;;;;;;;0.70;0.70;;;22.20;60.40;;;;;;5075874;28;20182;-71
2022/05/25 08:17:39;;;;;;;0.57;0.57;;;22.30;61.40;;;;;;5076071;28;20193;-70
2022/05/25 08:20:07;;;;;;;0.73;0.50;;;22.30;60.80;;;;;;5075769;28;20208;-70
2022/05/25 08:22:33;;;;;;;0.70;0.65;;;22.20;60.50;;;;;;5075088;28;20223;-70
2022/05/25 08:24:59;;;;;;;0.60;0.57;;;22.30;60.70;;;;;;5073317;28;20186;-71
2022/05/25 08:27:25;;;;;;;0.82;0.60;;;22.30;60.70;;;;;;5075333;28;20182;-71
2022/05/25 08:29:51;;;;;;;0.60;0.60;;;22.30;60.50;;;;;;5092358;28;20209;-71
2022/05/25 08:32:17;;;;;;;0.60;0.60;;;22.30;60.90;;;;;;5092761;28;20189;-70
2022/05/25 08:34:43;;;;;;;0.60;0.60;;;22.30;61.10;;;;;;5072546;28;20181;-70
2022/05/25 08:37:11;;;;;;;1.35;0.70;;;22.30;60.80;;;;;;5081132;28;20201;-70
2022/05/25 08:39:36;;;;;;;0.50;0.50;;;22.20;60.60;;;;;;5082184;28;20189;-71
2022/05/25 08:42:11;;;;;;;1.65;0.50;;;22.30;60.90;;;;;;5080160;28;20173;-71
2022/05/25 08:44:37;;;;;;;0.40;0.40;;;22.30;60.80;;;;;;5078130;28;20212;-70
2022/05/25 08:47:08;;;;;;;1.15;0.75;;;22.20;60.40;;;;;;5061003;28;20204;-71
2022/05/25 08:49:37;;;;;;;0.70;0.70;;;22.30;60.80;;;;;;5062717;28;20282;-71
2022/05/25 08:52:15;;;;;;;0.50;0.50;;;22.30;60.30;;;;;;5080020;28;20197;-70
2022/05/25 08:54:41;;;;;;;0.47;0.47;;;22.40;60.60;;;;;;5085859;28;20180;-70
2022/05/25 08:57:22;;;;;;;0.40;0.40;;;22.30;60.20;;;;;;5092442;28;20270;-70
2022/05/25 09:00:13;;;;;;;0.95;0.60;;;22.30;60.20;;;;;;5080651;28;20197;-70
2022/05/25 09:02:52;;;;;;;1.40;0.65;;;22.30;60.40;;;;;;5080611;28;20632;-70
2022/05/25 09:05:47;;;;;;;0.75;0.50;;;22.30;60.40;;;;;;5080687;28;20225;-71
2022/05/25 09:08:39;;;;;;;0.52;0.52;;;22.30;60.50;;;;;;5060982;28;20190;-71
2022/05/25 09:11:13;;;;;;;0.40;0.40;;;22.30;60.20;;;;;;5061177;28;20308;-69
2022/05/25 09:14:01;;;;;;;0.60;0.60;;;22.30;60.40;;;;;;5094987;28;20185;-71
2022/05/25 09:16:32;;;;;;;0.60;0.60;;;22.30;60.50;;;;;;5070255;28;20200;-71
2022/05/25 09:19:12;;;;;;;0.60;0.60;;;22.30;60.50;;;;;;5098218;28;20182;-71
2022/05/25 09:21:49;;;;;;;0.52;0.50;;;22.30;60.50;;;;;;5099311;28;20219;-70
2022/05/25 09:24:20;;;;;;;0.60;0.60;;;22.30;60.50;;;;;;5098352;28;20180;-71
2022/05/25 09:26:47;;;;;;;1.92;0.70;;;22.30;60.50;;;;;;5081631;28;20579;-71
2022/05/25 09:29:14;;;;;;;0.55;0.55;;;22.30;60.30;;;;;;5098054;28;20199;-70
2022/05/25 09:31:55;;;;;;;0.50;0.50;;;22.30;60.30;;;;;;5081043;28;20189;-71
2022/05/25 09:34:45;;;;;;;0.60;0.45;;;22.30;60.00;;;;;;5099534;28;20187;-71
2022/05/25 09:37:44;;;;;;;0.52;0.52;;;22.30;60.30;;;;;;5098626;28;20300;-72
2022/05/25 09:40:33;;;;;;;0.50;0.50;;;22.30;60.10;;;;;;5078433;28;20224;-72
2022/05/25 09:43:05;;;;;;;0.98;0.70;;;22.30;60.30;;;;;;5095712;28;20169;-72
2022/05/25 09:45:47;;;;;;;1.23;0.70;;;22.30;60.30;;;;;;5079511;28;20221;-71
2022/05/25 09:48:40;;;;;;;0.40;0.40;;;22.40;60.40;;;;;;5079220;28;20222;-71
2022/05/25 09:51:28;;;;;;;0.60;0.60;;;22.40;60.50;;;;;;5095865;28;20188;-72
2022/05/25 09:54:20;;;;;;;0.80;0.80;;;22.40;60.50;;;;;;5098011;28;20181;-71
2022/05/25 09:56:58;;;;;;;0.50;0.50;;;22.40;60.50;;;;;;5079314;28;20276;-71
2022/05/25 09:59:47;;;;;;;0.75;0.60;;;22.30;60.80;;;;;;5097162;28;20197;-71
2022/05/25 10:02:41;;;;;;;0.50;0.50;;;22.40;60.70;;;;;;5105319;28;20173;-72
2022/05/25 10:05:17;;;;;;;0.52;0.50;;;22.30;60.90;;;;;;5096072;28;20181;-72
2022/05/25 10:08:06;;;;;;;0.50;0.50;;;22.30;60.60;;;;;;5097146;28;20169;-72
2022/05/25 10:10:35;;;;;;;0.57;0.57;;;22.40;60.50;;;;;;5079757;28;20178;-72
2022/05/25 10:13:22;;;;;;;0.60;0.57;;;22.40;60.60;;;;;;5096706;28;20238;-72
2022/05/25 10:15:51;;;;;;;0.60;0.60;;;22.40;60.80;;;;;;5096213;28;20276;-71
2022/05/25 10:18:41;;;;;;;0.50;0.50;;;22.40;60.50;;;;;;5113770;28;20192;-72
2022/05/25 10:21:21;;;;;;;1.50;0.60;;;22.40;60.50;;;;;;5089602;28;20220;-72
2022/05/25 10:23:47;;;;;;;0.43;0.43;;;22.40;60.30;;;;;;5096844;28;20188;-72
2022/05/25 10:26:33;;;;;;;0.50;0.50;;;22.40;60.30;;;;;;5079326;28;20205;-72
2022/05/25 10:29:08;;;;;;;0.60;0.60;;;22.40;60.40;;;;;;5096812;28;20161;-71
2022/05/25 10:37:39;;;;;;;0.50;0.50;;;22.40;60.40;;;;;;5096315;28;20195;-72
2022/05/25 10:40:08;;;;;;;0.50;0.50;;;22.40;60.40;;;;;;5097221;28;20204;-71
2022/05/25 10:42:39;;;;;;;1.30;0.50;;;22.40;60.20;;;;;;5095843;28;20189;-71
2022/05/25 10:45:19;;;;;;;0.50;0.50;;;22.40;60.30;;;;;;5078874;28;20302;-72
2022/05/25 10:48:08;;;;;;;1.02;0.47;;;22.40;60.10;;;;;;5114025;28;20173;-71
2022/05/25 10:51:00;;;;;;;0.70;0.60;;;22.40;60.20;;;;;;5096396;28;20716;-71
2022/05/25 10:57:34;;;;;;;0.82;0.60;;;22.40;60.20;;;;;;5095430;28;20299;-72
2022/05/25 11:00:16;;;;;;;0.57;0.57;;;22.40;60.00;;;;;;5111818;28;20331;-72
2022/05/25 11:03:31;;;;;;;0.82;0.52;;;22.40;60.00;;;;;;5092499;28;20287;-72
2022/05/25 11:06:43;;;;;;;0.40;0.40;;;22.40;60.20;;;;;;5086830;28;20208;-72
2022/05/25 11:09:38;;;;;;;0.60;0.50;;;22.40;60.10;;;;;;5084650;28;20725;-72
2022/05/25 11:13:09;;;;;;;0.50;0.50;;;22.40;60.30;;;;;;5085937;28;20210;-72
2022/05/25 11:16:23;;;;;;;0.60;0.47;;;22.40;60.10;;;;;;5092275;28;20208;-72
2022/05/25 11:19:27;;;;;;;1.50;1.17;;;22.40;60.10;;;;;;5019330;28;20203;-72
2022/05/25 11:22:08;;;;;;;1.85;1.00;;;22.40;60.50;;;;;;5031709;28;20763;-72
2022/05/25 11:24:58;;;;;;;1.92;1.30;;;22.40;60.30;;;;;;5096960;28;20253;-72
2022/05/25 11:27:49;;;;;;;1.92;1.25;;;22.40;60.30;;;;;;5106998;28;20207;-72
2022/05/25 11:30:33;;;;;;;2.03;1.30;;;22.40;60.70;;;;;;5115466;28;20180;-72
2022/05/25 11:33:25;;;;;;;2.53;1.60;;;22.40;60.50;;;;;;5112005;28;20160;-72
2022/05/25 11:36:28;;;;;;;6.35;3.65;;;22.40;60.00;;;;;;5092617;28;20308;-72
2022/05/25 11:39:28;;;;;;;14.55;6.03;;;22.50;61.00;;;;;;5093838;28;20612;-72
2022/05/25 11:42:07;;;;;;;17.17;8.05;;;22.60;62.70;;;;;;5097593;28;20686;-73
2022/05/25 11:45:20;;;;;;;31.08;11.02;;;22.60;63.50;;;;;;5109708;28;20262;-72
2022/05/25 11:48:04;;;;;;;15.63;8.00;;;22.60;63.60;;;;;;5113680;28;20176;-72
2022/05/25 11:51:16;;;;;;;17.45;8.30;;;22.60;63.50;;;;;;5114783;28;20188;-72
2022/05/25 11:54:09;;;;;;;18.20;8.55;;;22.50;63.10;;;;;;5112576;28;20216;-72
2022/05/25 11:56:59;;;;;;;12.75;7.18;;;22.50;62.90;;;;;;5113155;28;20204;-71
2022/05/25 12:00:06;;;;;;;13.05;6.95;;;22.50;62.70;;;;;;5113079;28;20353;-71
2022/05/25 12:02:46;;;;;;;14.52;7.57;;;22.50;62.30;;;;;;5114793;28;20243;-72
2022/05/25 12:05:41;;;;;;;10.13;6.43;;;22.50;62.40;;;;;;5079801;28;20220;-72
2022/05/25 12:08:44;;;;;;;13.50;7.03;;;22.40;62.20;;;;;;5066467;28;20192;-71
2022/05/25 12:11:35;;;;;;;15.45;6.95;;;22.40;61.90;;;;;;5077941;28;20179;-72
2022/05/25 12:14:39;;;;;;;14.00;7.43;;;22.40;62.10;;;;;;5080526;28;20173;-72
2022/05/25 12:17:54;;;;;;;14.30;6.35;;;22.50;62.80;;;;;;5094555;28;20196;-71
2022/05/25 12:20:36;;;;;;;13.23;6.03;;;22.50;62.00;;;;;;5076736;28;20212;-72
2022/05/25 12:23:12;;;;;;;14.10;6.60;;;22.50;62.00;;;;;;5093177;28;20223;-71
2022/05/25 12:25:45;;;;;;;11.30;6.28;;;22.50;62.00;;;;;;5093313;28;20576;-71
2022/05/25 12:28:11;;;;;;;11.18;5.90;;;22.40;62.20;;;;;;5093935;28;20181;-72
2022/05/25 12:30:47;;;;;;;10.48;5.57;;;22.40;61.90;;;;;;5094138;28;20181;-72
2022/05/25 12:33:24;;;;;;;11.05;5.68;;;22.50;62.10;;;;;;5076772;28;20192;-72
2022/05/25 12:35:50;;;;;;;10.85;5.88;;;22.40;62.20;;;;;;5077799;28;20254;-72
2022/05/25 12:38:19;;;;;;;11.05;5.20;;;22.40;61.70;;;;;;5077448;28;20275;-72
2022/05/25 12:40:47;;;;;;;8.98;4.80;;;22.40;61.70;;;;;;5093954;28;20250;-72
2022/05/25 12:43:34;;;;;;;8.50;5.18;;;22.40;61.40;;;;;;5097036;28;20245;-72
2022/05/25 12:49:08;;;;;;;8.60;5.05;;;22.40;61.30;;;;;;5093952;28;20192;-72
2022/05/25 12:51:43;;;;;;;12.70;5.28;;;22.40;61.40;;;;;;5075629;28;20173;-71
2022/05/25 12:54:25;;;;;;;6.82;4.60;;;22.50;61.30;;;;;;5092680;28;20650;-72
2022/05/25 12:56:54;;;;;;;8.07;4.63;;;22.40;61.40;;;;;;5092983;28;20213;-71
2022/05/25 12:59:40;;;;;;;7.38;4.60;;;22.40;61.30;;;;;;5075968;28;20173;-72
2022/05/25 13:02:27;;;;;;;8.55;4.18;;;22.50;61.60;;;;;;5093159;28;20252;-72
2022/05/25 13:04:59;;;;;;;8.90;4.63;;;22.50;61.50;;;;;;5076648;28;20177;-72
2022/05/25 13:07:45;;;;;;;7.80;4.40;;;22.50;61.20;;;;;;5096508;28;20547;-71
2022/05/25 13:10:32;;;;;;;8.75;4.32;;;22.50;61.10;;;;;;5094497;28;20272;-72
2022/05/25 13:13:26;;;;;;;10.13;5.10;;;22.50;60.50;;;;;;5076984;28;20226;-73
2022/05/25 13:15:52;;;;;;;6.45;4.45;;;22.50;60.70;;;;;;5077234;28;20212;-72
2022/05/25 13:18:49;;;;;;;6.97;4.20;;;22.50;60.70;;;;;;5109966;28;20264;-72
2022/05/25 13:21:40;;;;;;;7.65;4.07;;;22.50;60.80;;;;;;5079384;28;20220;-71
2022/05/25 13:24:53;;;;;;;11.57;4.18;;;22.50;60.90;;;;;;5097517;28;20188;-73
2022/05/25 13:27:53;;;;;;;10.00;4.38;;;22.50;60.80;;;;;;5100492;28;20211;-72
2022/05/25 13:30:56;;;;;;;7.90;4.22;;;22.50;61.50;;;;;;5082200;28;20184;-72
2022/05/25 13:33:36;;;;;;;6.05;3.67;;;22.50;61.40;;;;;;5099002;28;20184;-73
2022/05/25 13:36:15;;;;;;;4.65;3.25;;;22.50;61.00;;;;;;5082018;28;20204;-72
2022/05/25 13:38:56;;;;;;;6.38;3.83;;;22.50;61.10;;;;;;5098723;28;20195;-71
2022/05/25 13:41:28;;;;;;;8.30;4.35;;;22.50;60.80;;;;;;5096255;28;20226;-72
2022/05/25 13:44:02;;;;;;;6.28;3.90;;;22.50;61.70;;;;;;5096642;28;20264;-71
2022/05/25 13:46:47;;;;;;;6.82;3.63;;;22.50;61.10;;;;;;5096703;28;20209;-72
2022/05/25 13:49:32;;;;;;;5.70;3.50;;;22.50;60.80;;;;;;5095724;28;20230;-71
2022/05/25 13:52:33;;;;;;;6.47;3.53;;;22.50;61.00;;;;;;5095505;28;20199;-70
2022/05/25 13:55:05;;;;;;;4.95;3.25;;;22.50;60.60;;;;;;5096474;28;20206;-71
2022/05/25 13:57:47;;;;;;;5.80;3.92;;;22.50;60.70;;;;;;5078559;28;20183;-71
2022/05/25 14:00:36;;;;;;;3.92;3.08;;;22.50;60.70;;;;;;5076269;28;20224;-72